sensor_id;sensor_type;location;lat;lon;timestamp;P1;durP1;ratioP1;P2;durP2;ratioP2
11761;SDS011;5938;47.098;15.474;2023-04-25T00:01:08;6.80;;;5.10;;
11761;SDS011;5938;47.098;15.474;2023-04-25T00:05:14;5.93;;;5.00;;
11761;SDS011;5938;47.098;15.474;2023-04-25T00:09:18;4.87;;;4.23;;
11761;SDS011;5938;47.098;15.474;2023-04-25T00:13:21;7.50;;;5.60;;
11761;SDS011;5938;47.098;15.474;2023-04-25T00:17:28;5.83;;;4.60;;
11761;SDS011;5938;47.098;15.474;2023-04-25T00:21:33;5.47;;;5.00;;
11761;SDS011;5938;47.098;15.474;2023-04-25T00:25:36;7.70;;;4.77;;
11761;SDS011;5938;47.098;15.474;2023-04-25T00:29:40;7.90;;;4.70;;
11761;SDS011;5938;47.098;15.474;2023-04-25T00:33:44;4.97;;;4.57;;
11761;SDS011;5938;47.098;15.474;2023-04-25T00:37:48;5.60;;;4.40;;
11761;SDS011;5938;47.098;15.474;2023-04-25T00:41:51;6.83;;;4.73;;
11761;SDS011;5938;47.098;15.474;2023-04-25T00:45:56;4.97;;;4.57;;
11761;SDS011;5938;47.098;15.474;2023-04-25T00:50:01;5.30;;;4.47;;
11761;SDS011;5938;47.098;15.474;2023-04-25T00:54:04;6.60;;;4.80;;
11761;SDS011;5938;47.098;15.474;2023-04-25T00:58:07;9.90;;;5.20;;
11761;SDS011;5938;47.098;15.474;2023-04-25T01:02:11;4.33;;;4.03;;
11761;SDS011;5938;47.098;15.474;2023-04-25T01:06:17;6.63;;;5.13;;
11761;SDS011;5938;47.098;15.474;2023-04-25T01:10:20;5.00;;;4.57;;
11761;SDS011;5938;47.098;15.474;2023-04-25T01:14:23;5.13;;;4.70;;
11761;SDS011;5938;47.098;15.474;2023-04-25T01:18:26;4.83;;;4.40;;
11761;SDS011;5938;47.098;15.474;2023-04-25T01:22:31;6.03;;;4.57;;
11761;SDS011;5938;47.098;15.474;2023-04-25T01:26:35;21.47;;;7.33;;
11761;SDS011;5938;47.098;15.474;2023-04-25T01:30:39;6.40;;;5.30;;
11761;SDS011;5938;47.098;15.474;2023-04-25T01:34:43;5.20;;;4.70;;
11761;SDS011;5938;47.098;15.474;2023-04-25T01:38:48;5.40;;;4.77;;
11761;SDS011;5938;47.098;15.474;2023-04-25T01:42:52;4.50;;;4.10;;
11761;SDS011;5938;47.098;15.474;2023-04-25T01:46:56;4.83;;;4.43;;
11761;SDS011;5938;47.098;15.474;2023-04-25T01:50:59;5.60;;;5.00;;
11761;SDS011;5938;47.098;15.474;2023-04-25T01:55:05;4.53;;;4.13;;
11761;SDS011;5938;47.098;15.474;2023-04-25T01:59:10;7.07;;;4.10;;
11761;SDS011;5938;47.098;15.474;2023-04-25T02:03:14;10.80;;;4.70;;
11761;SDS011;5938;47.098;15.474;2023-04-25T02:07:17;9.30;;;4.93;;
11761;SDS011;5938;47.098;15.474;2023-04-25T02:11:22;4.17;;;3.60;;
11761;SDS011;5938;47.098;15.474;2023-04-25T02:15:25;5.10;;;4.63;;
11761;SDS011;5938;47.098;15.474;2023-04-25T02:19:29;6.87;;;5.87;;
11761;SDS011;5938;47.098;15.474;2023-04-25T02:23:32;5.57;;;5.03;;
11761;SDS011;5938;47.098;15.474;2023-04-25T02:27:37;5.97;;;5.37;;
11761;SDS011;5938;47.098;15.474;2023-04-25T02:31:40;8.00;;;5.13;;
11761;SDS011;5938;47.098;15.474;2023-04-25T02:35:44;5.00;;;4.50;;
11761;SDS011;5938;47.098;15.474;2023-04-25T02:39:47;4.23;;;3.83;;
11761;SDS011;5938;47.098;15.474;2023-04-25T02:43:52;6.17;;;4.70;;
11761;SDS011;5938;47.098;15.474;2023-04-25T02:47:55;3.87;;;3.57;;
11761;SDS011;5938;47.098;15.474;2023-04-25T02:51:59;4.53;;;3.67;;
11761;SDS011;5938;47.098;15.474;2023-04-25T02:56:02;4.60;;;4.17;;
11761;SDS011;5938;47.098;15.474;2023-04-25T03:00:08;4.97;;;3.73;;
11761;SDS011;5938;47.098;15.474;2023-04-25T03:04:14;4.23;;;3.70;;
11761;SDS011;5938;47.098;15.474;2023-04-25T03:08:17;6.53;;;4.03;;
11761;SDS011;5938;47.098;15.474;2023-04-25T03:12:21;6.00;;;3.80;;
11761;SDS011;5938;47.098;15.474;2023-04-25T03:16:26;10.83;;;4.13;;
11761;SDS011;5938;47.098;15.474;2023-04-25T03:20:30;4.53;;;3.60;;
11761;SDS011;5938;47.098;15.474;2023-04-25T03:24:33;3.73;;;3.17;;
11761;SDS011;5938;47.098;15.474;2023-04-25T03:28:36;4.70;;;3.80;;
11761;SDS011;5938;47.098;15.474;2023-04-25T03:32:42;4.90;;;3.57;;
11761;SDS011;5938;47.098;15.474;2023-04-25T03:36:45;5.07;;;4.00;;
11761;SDS011;5938;47.098;15.474;2023-04-25T03:40:49;4.37;;;3.27;;
11761;SDS011;5938;47.098;15.474;2023-04-25T03:44:53;3.90;;;3.20;;
11761;SDS011;5938;47.098;15.474;2023-04-25T03:48:58;3.37;;;3.10;;
11761;SDS011;5938;47.098;15.474;2023-04-25T03:53:01;3.67;;;3.20;;
11761;SDS011;5938;47.098;15.474;2023-04-25T03:57:05;3.33;;;3.00;;
11761;SDS011;5938;47.098;15.474;2023-04-25T04:01:08;5.17;;;4.37;;
11761;SDS011;5938;47.098;15.474;2023-04-25T04:05:13;5.40;;;4.87;;
11761;SDS011;5938;47.098;15.474;2023-04-25T04:09:16;6.23;;;5.57;;
11761;SDS011;5938;47.098;15.474;2023-04-25T04:13:19;4.80;;;4.40;;
11761;SDS011;5938;47.098;15.474;2023-04-25T04:17:22;5.07;;;4.00;;
11761;SDS011;5938;47.098;15.474;2023-04-25T04:21:28;5.13;;;4.20;;
11761;SDS011;5938;47.098;15.474;2023-04-25T04:25:31;4.20;;;3.90;;
11761;SDS011;5938;47.098;15.474;2023-04-25T04:29:35;3.20;;;2.50;;
11761;SDS011;5938;47.098;15.474;2023-04-25T04:33:39;5.07;;;3.30;;
11761;SDS011;5938;47.098;15.474;2023-04-25T04:37:43;9.43;;;5.80;;
11761;SDS011;5938;47.098;15.474;2023-04-25T04:41:47;3.50;;;3.00;;
11761;SDS011;5938;47.098;15.474;2023-04-25T04:45:52;4.10;;;3.80;;
11761;SDS011;5938;47.098;15.474;2023-04-25T04:49:57;4.50;;;3.17;;
11761;SDS011;5938;47.098;15.474;2023-04-25T04:54:02;5.73;;;4.27;;
11761;SDS011;5938;47.098;15.474;2023-04-25T04:58:06;4.17;;;3.77;;
11761;SDS011;5938;47.098;15.474;2023-04-25T05:02:09;5.40;;;4.07;;
11761;SDS011;5938;47.098;15.474;2023-04-25T05:06:13;7.77;;;4.47;;
11761;SDS011;5938;47.098;15.474;2023-04-25T05:10:18;9.50;;;5.70;;
11761;SDS011;5938;47.098;15.474;2023-04-25T05:14:22;5.47;;;4.60;;
11761;SDS011;5938;47.098;15.474;2023-04-25T05:18:27;8.00;;;5.03;;
11761;SDS011;5938;47.098;15.474;2023-04-25T05:22:30;6.83;;;6.13;;
11761;SDS011;5938;47.098;15.474;2023-04-25T05:26:35;6.70;;;5.43;;
11761;SDS011;5938;47.098;15.474;2023-04-25T05:30:38;10.50;;;5.40;;
11761;SDS011;5938;47.098;15.474;2023-04-25T05:34:41;6.83;;;6.00;;
11761;SDS011;5938;47.098;15.474;2023-04-25T05:38:45;7.13;;;6.43;;
11761;SDS011;5938;47.098;15.474;2023-04-25T05:42:50;7.70;;;6.53;;
11761;SDS011;5938;47.098;15.474;2023-04-25T05:46:54;6.90;;;6.20;;
11761;SDS011;5938;47.098;15.474;2023-04-25T05:50:57;6.40;;;5.80;;
11761;SDS011;5938;47.098;15.474;2023-04-25T05:55:01;9.10;;;6.57;;
11761;SDS011;5938;47.098;15.474;2023-04-25T05:59:06;6.87;;;5.63;;
11761;SDS011;5938;47.098;15.474;2023-04-25T06:03:09;8.20;;;6.60;;
11761;SDS011;5938;47.098;15.474;2023-04-25T06:07:14;6.33;;;5.83;;
11761;SDS011;5938;47.098;15.474;2023-04-25T06:11:19;10.43;;;5.93;;
11761;SDS011;5938;47.098;15.474;2023-04-25T06:15:24;6.10;;;5.50;;
11761;SDS011;5938;47.098;15.474;2023-04-25T06:19:29;5.93;;;5.43;;
11761;SDS011;5938;47.098;15.474;2023-04-25T06:23:34;7.63;;;5.57;;
11761;SDS011;5938;47.098;15.474;2023-04-25T06:27:37;6.63;;;6.03;;
11761;SDS011;5938;47.098;15.474;2023-04-25T06:31:41;6.37;;;5.53;;
11761;SDS011;5938;47.098;15.474;2023-04-25T06:35:45;8.30;;;4.90;;
11761;SDS011;5938;47.098;15.474;2023-04-25T06:39:48;6.10;;;5.40;;
11761;SDS011;5938;47.098;15.474;2023-04-25T06:43:52;7.97;;;5.90;;
11761;SDS011;5938;47.098;15.474;2023-04-25T06:47:56;7.57;;;6.73;;
11761;SDS011;5938;47.098;15.474;2023-04-25T06:51:59;6.37;;;5.00;;
11761;SDS011;5938;47.098;15.474;2023-04-25T06:56:03;7.93;;;4.80;;
11761;SDS011;5938;47.098;15.474;2023-04-25T07:00:10;17.40;;;6.20;;
11761;SDS011;5938;47.098;15.474;2023-04-25T07:04:18;6.90;;;5.50;;
11761;SDS011;5938;47.098;15.474;2023-04-25T07:08:21;8.83;;;6.40;;
11761;SDS011;5938;47.098;15.474;2023-04-25T07:12:25;11.90;;;6.10;;
11761;SDS011;5938;47.098;15.474;2023-04-25T07:16:28;7.33;;;5.37;;
11761;SDS011;5938;47.098;15.474;2023-04-25T07:20:33;4.90;;;4.03;;
11761;SDS011;5938;47.098;15.474;2023-04-25T07:24:36;5.10;;;3.30;;
11761;SDS011;5938;47.098;15.474;2023-04-25T07:28:40;5.00;;;2.80;;
11761;SDS011;5938;47.098;15.474;2023-04-25T07:32:43;2.90;;;1.80;;
11761;SDS011;5938;47.098;15.474;2023-04-25T07:36:48;1.90;;;1.47;;
11761;SDS011;5938;47.098;15.474;2023-04-25T07:40:51;2.60;;;1.50;;
11761;SDS011;5938;47.098;15.474;2023-04-25T07:44:55;1.90;;;1.70;;
11761;SDS011;5938;47.098;15.474;2023-04-25T07:48:58;2.03;;;1.67;;
11761;SDS011;5938;47.098;15.474;2023-04-25T07:53:04;6.07;;;4.00;;
11761;SDS011;5938;47.098;15.474;2023-04-25T07:57:07;6.27;;;4.07;;
11761;SDS011;5938;47.098;15.474;2023-04-25T08:01:11;8.60;;;2.03;;
11761;SDS011;5938;47.098;15.474;2023-04-25T08:05:14;2.30;;;2.10;;
11761;SDS011;5938;47.098;15.474;2023-04-25T08:09:22;2.70;;;1.87;;
11761;SDS011;5938;47.098;15.474;2023-04-25T08:13:26;2.07;;;1.40;;
11761;SDS011;5938;47.098;15.474;2023-04-25T08:17:29;3.13;;;1.40;;
11761;SDS011;5938;47.098;15.474;2023-04-25T08:21:33;2.23;;;2.03;;
11761;SDS011;5938;47.098;15.474;2023-04-25T08:25:37;3.73;;;1.73;;
11761;SDS011;5938;47.098;15.474;2023-04-25T08:29:41;1.90;;;1.60;;
11761;SDS011;5938;47.098;15.474;2023-04-25T08:33:45;1.40;;;1.30;;
11761;SDS011;5938;47.098;15.474;2023-04-25T08:37:48;1.47;;;1.30;;
11761;SDS011;5938;47.098;15.474;2023-04-25T08:41:55;4.03;;;1.80;;
11761;SDS011;5938;47.098;15.474;2023-04-25T08:45:59;1.90;;;1.80;;
11761;SDS011;5938;47.098;15.474;2023-04-25T08:50:04;5.43;;;1.47;;
11761;SDS011;5938;47.098;15.474;2023-04-25T08:54:09;2.70;;;2.30;;
11761;SDS011;5938;47.098;15.474;2023-04-25T08:58:19;6.03;;;2.27;;
11761;SDS011;5938;47.098;15.474;2023-04-25T09:02:23;4.70;;;2.43;;
11761;SDS011;5938;47.098;15.474;2023-04-25T09:06:28;1.93;;;1.47;;
11761;SDS011;5938;47.098;15.474;2023-04-25T09:10:32;2.07;;;1.53;;
11761;SDS011;5938;47.098;15.474;2023-04-25T09:14:37;1.77;;;1.67;;
11761;SDS011;5938;47.098;15.474;2023-04-25T09:18:40;1.57;;;1.47;;
11761;SDS011;5938;47.098;15.474;2023-04-25T09:22:49;1.83;;;1.60;;
11761;SDS011;5938;47.098;15.474;2023-04-25T09:26:52;3.50;;;1.90;;
11761;SDS011;5938;47.098;15.474;2023-04-25T09:30:57;1.80;;;1.60;;
11761;SDS011;5938;47.098;15.474;2023-04-25T09:35:00;1.80;;;1.50;;
11761;SDS011;5938;47.098;15.474;2023-04-25T09:39:06;2.60;;;2.17;;
11761;SDS011;5938;47.098;15.474;2023-04-25T09:43:18;1.67;;;1.23;;
11761;SDS011;5938;47.098;15.474;2023-04-25T09:47:25;1.60;;;1.50;;
11761;SDS011;5938;47.098;15.474;2023-04-25T09:51:29;3.90;;;1.20;;
11761;SDS011;5938;47.098;15.474;2023-04-25T09:55:33;2.40;;;1.40;;
11761;SDS011;5938;47.098;15.474;2023-04-25T09:59:38;2.33;;;1.60;;
11761;SDS011;5938;47.098;15.474;2023-04-25T10:03:43;1.50;;;1.40;;
11761;SDS011;5938;47.098;15.474;2023-04-25T10:07:49;1.47;;;1.37;;
11761;SDS011;5938;47.098;15.474;2023-04-25T10:11:55;1.80;;;1.50;;
11761;SDS011;5938;47.098;15.474;2023-04-25T10:15:59;2.77;;;1.33;;
11761;SDS011;5938;47.098;15.474;2023-04-25T10:20:05;1.90;;;1.20;;
11761;SDS011;5938;47.098;15.474;2023-04-25T10:24:12;2.10;;;1.30;;
11761;SDS011;5938;47.098;15.474;2023-04-25T10:28:17;1.60;;;1.40;;
11761;SDS011;5938;47.098;15.474;2023-04-25T10:32:21;1.57;;;1.33;;
11761;SDS011;5938;47.098;15.474;2023-04-25T10:36:26;3.50;;;1.80;;
11761;SDS011;5938;47.098;15.474;2023-04-25T10:40:33;1.73;;;1.30;;
11761;SDS011;5938;47.098;15.474;2023-04-25T10:44:37;1.73;;;1.30;;
11761;SDS011;5938;47.098;15.474;2023-04-25T10:48:45;1.57;;;1.47;;
11761;SDS011;5938;47.098;15.474;2023-04-25T10:52:51;1.70;;;0.97;;
11761;SDS011;5938;47.098;15.474;2023-04-25T10:56:58;2.07;;;1.50;;
11761;SDS011;5938;47.098;15.474;2023-04-25T11:01:01;1.30;;;1.20;;
11761;SDS011;5938;47.098;15.474;2023-04-25T11:05:05;1.40;;;1.30;;
11761;SDS011;5938;47.098;15.474;2023-04-25T11:09:11;1.20;;;1.10;;
11761;SDS011;5938;47.098;15.474;2023-04-25T11:13:16;2.17;;;1.50;;
11761;SDS011;5938;47.098;15.474;2023-04-25T11:17:24;1.57;;;1.47;;
11761;SDS011;5938;47.098;15.474;2023-04-25T11:21:28;1.10;;;1.00;;
11761;SDS011;5938;47.098;15.474;2023-04-25T11:25:36;1.37;;;1.20;;
11761;SDS011;5938;47.098;15.474;2023-04-25T11:29:39;2.37;;;1.33;;
11761;SDS011;5938;47.098;15.474;2023-04-25T11:33:43;2.53;;;0.90;;
11761;SDS011;5938;47.098;15.474;2023-04-25T11:37:47;1.97;;;1.37;;
11761;SDS011;5938;47.098;15.474;2023-04-25T11:41:52;4.07;;;1.30;;
11761;SDS011;5938;47.098;15.474;2023-04-25T11:45:56;0.80;;;0.80;;
11761;SDS011;5938;47.098;15.474;2023-04-25T11:49:59;1.80;;;1.63;;
11761;SDS011;5938;47.098;15.474;2023-04-25T11:54:02;1.20;;;1.10;;
11761;SDS011;5938;47.098;15.474;2023-04-25T11:58:07;1.13;;;0.80;;
11761;SDS011;5938;47.098;15.474;2023-04-25T12:02:23;1.90;;;1.23;;
11761;SDS011;5938;47.098;15.474;2023-04-25T12:06:27;2.13;;;1.23;;
11761;SDS011;5938;47.098;15.474;2023-04-25T12:10:31;3.80;;;1.20;;
11761;SDS011;5938;47.098;15.474;2023-04-25T12:14:37;2.73;;;1.63;;
11761;SDS011;5938;47.098;15.474;2023-04-25T12:18:40;1.03;;;0.93;;
11761;SDS011;5938;47.098;15.474;2023-04-25T12:22:44;1.43;;;1.20;;
11761;SDS011;5938;47.098;15.474;2023-04-25T12:26:49;1.03;;;0.70;;
11761;SDS011;5938;47.098;15.474;2023-04-25T12:30:55;1.20;;;1.10;;
11761;SDS011;5938;47.098;15.474;2023-04-25T12:35:00;0.90;;;0.90;;
11761;SDS011;5938;47.098;15.474;2023-04-25T12:39:03;1.20;;;1.00;;
11761;SDS011;5938;47.098;15.474;2023-04-25T12:43:06;1.37;;;0.80;;
11761;SDS011;5938;47.098;15.474;2023-04-25T12:47:11;0.90;;;0.90;;
11761;SDS011;5938;47.098;15.474;2023-04-25T12:51:14;1.00;;;0.90;;
11761;SDS011;5938;47.098;15.474;2023-04-25T12:55:18;1.03;;;0.87;;
11761;SDS011;5938;47.098;15.474;2023-04-25T12:59:21;0.97;;;0.90;;
11761;SDS011;5938;47.098;15.474;2023-04-25T13:03:26;4.83;;;1.50;;
11761;SDS011;5938;47.098;15.474;2023-04-25T13:07:30;1.10;;;1.00;;
11761;SDS011;5938;47.098;15.474;2023-04-25T13:11:36;0.70;;;0.70;;
11761;SDS011;5938;47.098;15.474;2023-04-25T13:15:39;2.00;;;0.80;;
11761;SDS011;5938;47.098;15.474;2023-04-25T13:19:44;1.10;;;1.00;;
11761;SDS011;5938;47.098;15.474;2023-04-25T13:23:47;1.70;;;0.90;;
11761;SDS011;5938;47.098;15.474;2023-04-25T13:27:52;1.70;;;1.00;;
11761;SDS011;5938;47.098;15.474;2023-04-25T13:31:55;0.60;;;0.60;;
11761;SDS011;5938;47.098;15.474;2023-04-25T13:36:01;1.80;;;1.13;;
11761;SDS011;5938;47.098;15.474;2023-04-25T13:40:06;1.93;;;1.73;;
11761;SDS011;5938;47.098;15.474;2023-04-25T13:44:19;1.70;;;1.50;;
11761;SDS011;5938;47.098;15.474;2023-04-25T13:48:23;1.60;;;1.33;;
11761;SDS011;5938;47.098;15.474;2023-04-25T13:52:28;1.27;;;1.17;;
11761;SDS011;5938;47.098;15.474;2023-04-25T13:56:32;1.23;;;1.10;;
11761;SDS011;5938;47.098;15.474;2023-04-25T14:00:35;5.50;;;1.73;;
11761;SDS011;5938;47.098;15.474;2023-04-25T14:04:41;2.67;;;1.20;;
11761;SDS011;5938;47.098;15.474;2023-04-25T14:08:47;3.63;;;1.47;;
11761;SDS011;5938;47.098;15.474;2023-04-25T14:12:51;1.30;;;1.20;;
11761;SDS011;5938;47.098;15.474;2023-04-25T14:16:54;1.50;;;1.40;;
11761;SDS011;5938;47.098;15.474;2023-04-25T14:20:59;1.23;;;1.13;;
11761;SDS011;5938;47.098;15.474;2023-04-25T14:25:04;2.63;;;1.20;;
11761;SDS011;5938;47.098;15.474;2023-04-25T14:29:09;2.57;;;1.53;;
11761;SDS011;5938;47.098;15.474;2023-04-25T14:33:13;2.50;;;1.40;;
11761;SDS011;5938;47.098;15.474;2023-04-25T14:37:17;4.80;;;1.70;;
11761;SDS011;5938;47.098;15.474;2023-04-25T14:41:23;1.83;;;1.13;;
11761;SDS011;5938;47.098;15.474;2023-04-25T14:45:30;1.27;;;1.10;;
11761;SDS011;5938;47.098;15.474;2023-04-25T14:49:37;0.80;;;0.80;;
11761;SDS011;5938;47.098;15.474;2023-04-25T14:53:43;0.97;;;0.87;;
11761;SDS011;5938;47.098;15.474;2023-04-25T14:57:52;1.83;;;0.87;;
11761;SDS011;5938;47.098;15.474;2023-04-25T15:01:58;2.80;;;1.00;;
11761;SDS011;5938;47.098;15.474;2023-04-25T15:06:07;1.20;;;1.10;;
11761;SDS011;5938;47.098;15.474;2023-04-25T15:10:13;0.93;;;0.90;;
11761;SDS011;5938;47.098;15.474;2023-04-25T15:14:19;4.87;;;1.43;;
11761;SDS011;5938;47.098;15.474;2023-04-25T15:18:26;0.70;;;0.70;;
11761;SDS011;5938;47.098;15.474;2023-04-25T15:22:29;1.80;;;1.20;;
11761;SDS011;5938;47.098;15.474;2023-04-25T15:26:33;2.20;;;1.23;;
11761;SDS011;5938;47.098;15.474;2023-04-25T15:30:38;0.70;;;0.70;;
11761;SDS011;5938;47.098;15.474;2023-04-25T15:34:41;1.73;;;0.80;;
11761;SDS011;5938;47.098;15.474;2023-04-25T15:38:45;1.50;;;1.40;;
11761;SDS011;5938;47.098;15.474;2023-04-25T15:42:49;1.43;;;0.67;;
11761;SDS011;5938;47.098;15.474;2023-04-25T15:46:54;0.60;;;0.60;;
11761;SDS011;5938;47.098;15.474;2023-04-25T15:50:58;4.43;;;0.80;;
11761;SDS011;5938;47.098;15.474;2023-04-25T15:55:02;1.30;;;1.20;;
11761;SDS011;5938;47.098;15.474;2023-04-25T15:59:06;1.13;;;0.73;;
11761;SDS011;5938;47.098;15.474;2023-04-25T16:03:11;4.33;;;0.57;;
11761;SDS011;5938;47.098;15.474;2023-04-25T16:07:15;1.27;;;0.60;;
11761;SDS011;5938;47.098;15.474;2023-04-25T16:11:19;2.37;;;0.80;;
11761;SDS011;5938;47.098;15.474;2023-04-25T16:15:23;1.43;;;0.97;;
11761;SDS011;5938;47.098;15.474;2023-04-25T16:19:27;2.30;;;1.67;;
11761;SDS011;5938;47.098;15.474;2023-04-25T16:23:31;1.93;;;0.87;;
11761;SDS011;5938;47.098;15.474;2023-04-25T16:27:35;1.03;;;0.70;;
11761;SDS011;5938;47.098;15.474;2023-04-25T16:31:40;1.40;;;0.77;;
11761;SDS011;5938;47.098;15.474;2023-04-25T16:35:45;0.70;;;0.70;;
11761;SDS011;5938;47.098;15.474;2023-04-25T16:39:50;1.47;;;1.00;;
11761;SDS011;5938;47.098;15.474;2023-04-25T16:43:54;1.27;;;1.07;;
11761;SDS011;5938;47.098;15.474;2023-04-25T16:47:59;2.80;;;0.70;;
11761;SDS011;5938;47.098;15.474;2023-04-25T16:52:05;1.00;;;0.60;;
11761;SDS011;5938;47.098;15.474;2023-04-25T16:56:11;1.37;;;0.93;;
11761;SDS011;5938;47.098;15.474;2023-04-25T17:00:18;0.60;;;0.60;;
11761;SDS011;5938;47.098;15.474;2023-04-25T17:04:22;0.70;;;0.67;;
11761;SDS011;5938;47.098;15.474;2023-04-25T17:08:28;0.90;;;0.80;;
11761;SDS011;5938;47.098;15.474;2023-04-25T17:12:31;2.57;;;1.60;;
11761;SDS011;5938;47.098;15.474;2023-04-25T17:16:35;3.37;;;1.97;;
11761;SDS011;5938;47.098;15.474;2023-04-25T17:20:40;3.50;;;1.43;;
11761;SDS011;5938;47.098;15.474;2023-04-25T17:24:45;2.07;;;1.10;;
11761;SDS011;5938;47.098;15.474;2023-04-25T17:28:48;1.30;;;1.20;;
11761;SDS011;5938;47.098;15.474;2023-04-25T17:32:53;0.70;;;0.70;;
11761;SDS011;5938;47.098;15.474;2023-04-25T17:36:59;0.50;;;0.50;;
11761;SDS011;5938;47.098;15.474;2023-04-25T17:41:04;0.70;;;0.60;;
11761;SDS011;5938;47.098;15.474;2023-04-25T17:45:10;1.17;;;0.83;;
11761;SDS011;5938;47.098;15.474;2023-04-25T17:49:14;0.70;;;0.70;;
11761;SDS011;5938;47.098;15.474;2023-04-25T17:53:19;1.17;;;0.70;;
11761;SDS011;5938;47.098;15.474;2023-04-25T17:57:24;0.73;;;0.73;;
11761;SDS011;5938;47.098;15.474;2023-04-25T18:01:27;1.83;;;1.07;;
11761;SDS011;5938;47.098;15.474;2023-04-25T18:05:32;0.90;;;0.90;;
11761;SDS011;5938;47.098;15.474;2023-04-25T18:09:36;0.73;;;0.73;;
11761;SDS011;5938;47.098;15.474;2023-04-25T18:13:41;1.07;;;0.97;;
11761;SDS011;5938;47.098;15.474;2023-04-25T18:17:46;2.87;;;1.17;;
11761;SDS011;5938;47.098;15.474;2023-04-25T18:21:52;1.53;;;1.43;;
11761;SDS011;5938;47.098;15.474;2023-04-25T18:25:59;2.57;;;2.47;;
11761;SDS011;5938;47.098;15.474;2023-04-25T18:30:08;3.60;;;0.97;;
11761;SDS011;5938;47.098;15.474;2023-04-25T18:34:13;0.83;;;0.73;;
11761;SDS011;5938;47.098;15.474;2023-04-25T18:38:17;1.00;;;0.97;;
11761;SDS011;5938;47.098;15.474;2023-04-25T18:42:36;0.73;;;0.73;;
11761;SDS011;5938;47.098;15.474;2023-04-25T18:46:42;14.90;;;11.13;;
11761;SDS011;5938;47.098;15.474;2023-04-25T18:50:48;1.60;;;1.50;;
11761;SDS011;5938;47.098;15.474;2023-04-25T18:54:54;1.43;;;1.30;;
11761;SDS011;5938;47.098;15.474;2023-04-25T18:59:01;4.97;;;3.07;;
11761;SDS011;5938;47.098;15.474;2023-04-25T19:03:06;5.10;;;3.70;;
11761;SDS011;5938;47.098;15.474;2023-04-25T19:07:10;4.37;;;3.30;;
11761;SDS011;5938;47.098;15.474;2023-04-25T19:11:19;4.00;;;2.30;;
11761;SDS011;5938;47.098;15.474;2023-04-25T19:15:23;24.90;;;18.50;;
11761;SDS011;5938;47.098;15.474;2023-04-25T19:19:30;21.20;;;17.77;;
11761;SDS011;5938;47.098;15.474;2023-04-25T19:23:35;5.07;;;4.60;;
11761;SDS011;5938;47.098;15.474;2023-04-25T19:27:40;7.40;;;6.70;;
11761;SDS011;5938;47.098;15.474;2023-04-25T19:31:44;4.47;;;4.07;;
11761;SDS011;5938;47.098;15.474;2023-04-25T19:35:51;2.57;;;2.30;;
11761;SDS011;5938;47.098;15.474;2023-04-25T19:39:56;2.87;;;2.00;;
11761;SDS011;5938;47.098;15.474;2023-04-25T19:44:02;1.40;;;1.30;;
11761;SDS011;5938;47.098;15.474;2023-04-25T19:48:07;1.80;;;1.30;;
11761;SDS011;5938;47.098;15.474;2023-04-25T19:52:15;2.23;;;1.50;;
11761;SDS011;5938;47.098;15.474;2023-04-25T19:56:18;2.17;;;1.73;;
11761;SDS011;5938;47.098;15.474;2023-04-25T20:00:22;2.03;;;1.80;;
11761;SDS011;5938;47.098;15.474;2023-04-25T20:04:27;2.70;;;2.23;;
11761;SDS011;5938;47.098;15.474;2023-04-25T20:08:33;1.70;;;1.60;;
11761;SDS011;5938;47.098;15.474;2023-04-25T20:12:37;3.13;;;2.93;;
11761;SDS011;5938;47.098;15.474;2023-04-25T20:16:40;1.20;;;1.10;;
11761;SDS011;5938;47.098;15.474;2023-04-25T20:20:46;1.87;;;1.70;;
11761;SDS011;5938;47.098;15.474;2023-04-25T20:24:51;1.50;;;1.10;;
11761;SDS011;5938;47.098;15.474;2023-04-25T20:28:55;0.80;;;0.70;;
11761;SDS011;5938;47.098;15.474;2023-04-25T20:32:59;1.40;;;0.80;;
11761;SDS011;5938;47.098;15.474;2023-04-25T20:37:02;1.50;;;0.90;;
11761;SDS011;5938;47.098;15.474;2023-04-25T20:41:08;1.23;;;0.87;;
11761;SDS011;5938;47.098;15.474;2023-04-25T20:45:12;0.97;;;0.97;;
11761;SDS011;5938;47.098;15.474;2023-04-25T20:49:16;0.60;;;0.60;;
11761;SDS011;5938;47.098;15.474;2023-04-25T20:53:20;0.50;;;0.50;;
11761;SDS011;5938;47.098;15.474;2023-04-25T20:57:24;2.00;;;0.90;;
11761;SDS011;5938;47.098;15.474;2023-04-25T21:01:28;0.80;;;0.80;;
11761;SDS011;5938;47.098;15.474;2023-04-25T21:05:32;0.97;;;0.90;;
11761;SDS011;5938;47.098;15.474;2023-04-25T21:09:35;1.03;;;0.87;;
11761;SDS011;5938;47.098;15.474;2023-04-25T21:13:39;1.40;;;1.00;;
11761;SDS011;5938;47.098;15.474;2023-04-25T21:17:43;0.70;;;0.67;;
11761;SDS011;5938;47.098;15.474;2023-04-25T21:21:47;1.30;;;1.20;;
11761;SDS011;5938;47.098;15.474;2023-04-25T21:25:51;1.03;;;0.93;;
11761;SDS011;5938;47.098;15.474;2023-04-25T21:29:56;0.80;;;0.80;;
11761;SDS011;5938;47.098;15.474;2023-04-25T21:33:59;1.23;;;1.17;;
11761;SDS011;5938;47.098;15.474;2023-04-25T21:38:02;1.87;;;0.80;;
11761;SDS011;5938;47.098;15.474;2023-04-25T21:42:05;2.13;;;0.80;;
11761;SDS011;5938;47.098;15.474;2023-04-25T21:46:11;1.33;;;1.10;;
11761;SDS011;5938;47.098;15.474;2023-04-25T21:50:17;2.57;;;0.80;;
11761;SDS011;5938;47.098;15.474;2023-04-25T21:54:21;1.80;;;1.37;;
11761;SDS011;5938;47.098;15.474;2023-04-25T21:58:25;2.20;;;1.63;;
11761;SDS011;5938;47.098;15.474;2023-04-25T22:02:29;2.30;;;1.20;;
11761;SDS011;5938;47.098;15.474;2023-04-25T22:06:34;2.30;;;1.30;;
11761;SDS011;5938;47.098;15.474;2023-04-25T22:10:37;4.37;;;1.37;;
11761;SDS011;5938;47.098;15.474;2023-04-25T22:14:42;1.67;;;1.10;;
11761;SDS011;5938;47.098;15.474;2023-04-25T22:18:47;1.40;;;0.90;;
11761;SDS011;5938;47.098;15.474;2023-04-25T22:22:53;3.03;;;1.30;;
11761;SDS011;5938;47.098;15.474;2023-04-25T22:26:57;2.93;;;1.30;;
11761;SDS011;5938;47.098;15.474;2023-04-25T22:31:01;1.30;;;1.20;;
11761;SDS011;5938;47.098;15.474;2023-04-25T22:35:06;1.33;;;1.07;;
11761;SDS011;5938;47.098;15.474;2023-04-25T22:39:11;1.07;;;1.00;;
11761;SDS011;5938;47.098;15.474;2023-04-25T22:43:16;1.70;;;1.17;;
11761;SDS011;5938;47.098;15.474;2023-04-25T22:47:20;1.77;;;1.27;;
11761;SDS011;5938;47.098;15.474;2023-04-25T22:51:26;1.97;;;1.10;;
11761;SDS011;5938;47.098;15.474;2023-04-25T22:55:31;0.97;;;0.93;;
11761;SDS011;5938;47.098;15.474;2023-04-25T22:59:34;1.50;;;1.40;;
11761;SDS011;5938;47.098;15.474;2023-04-25T23:03:38;1.87;;;1.00;;
11761;SDS011;5938;47.098;15.474;2023-04-25T23:07:43;1.90;;;1.33;;
11761;SDS011;5938;47.098;15.474;2023-04-25T23:11:46;1.67;;;0.83;;
11761;SDS011;5938;47.098;15.474;2023-04-25T23:15:53;1.53;;;1.20;;
11761;SDS011;5938;47.098;15.474;2023-04-25T23:19:57;1.80;;;1.30;;
11761;SDS011;5938;47.098;15.474;2023-04-25T23:24:01;2.97;;;1.20;;
11761;SDS011;5938;47.098;15.474;2023-04-25T23:28:06;0.93;;;0.93;;
11761;SDS011;5938;47.098;15.474;2023-04-25T23:32:09;2.63;;;1.20;;
11761;SDS011;5938;47.098;15.474;2023-04-25T23:36:16;1.10;;;1.00;;
11761;SDS011;5938;47.098;15.474;2023-04-25T23:40:23;1.87;;;1.50;;
11761;SDS011;5938;47.098;15.474;2023-04-25T23:44:26;1.07;;;0.97;;
11761;SDS011;5938;47.098;15.474;2023-04-25T23:48:29;1.27;;;1.17;;
11761;SDS011;5938;47.098;15.474;2023-04-25T23:52:33;1.53;;;1.43;;
11761;SDS011;5938;47.098;15.474;2023-04-25T23:56:37;1.23;;;1.13;;
